createdAt,value
2022-08-08T00:02:03.342Z,1.10
2022-08-08T00:04:31.649Z,1.20
2022-08-08T00:07:18.167Z,1.30
2022-08-08T00:10:05.683Z,0.80
2022-08-08T00:12:43.911Z,1.10
2022-08-08T00:15:57.448Z,1.03
2022-08-08T00:18:23.141Z,1.10
2022-08-08T00:20:57.560Z,1.23
2022-08-08T00:23:42.344Z,1.20
2022-08-08T00:26:26.100Z,1.10
2022-08-08T00:29:07.862Z,1.20
2022-08-08T00:32:15.349Z,1.20
2022-08-08T00:35:21.976Z,1.10
2022-08-08T00:38:05.447Z,1.20
2022-08-08T00:41:45.169Z,1.33
2022-08-08T00:44:53.666Z,1.10
2022-08-08T00:53:29.241Z,1.30
2022-08-08T00:57:00.411Z,1.00
2022-08-08T01:00:10.868Z,1.20
2022-08-08T01:04:02.645Z,1.03
2022-08-08T01:07:55.824Z,1.17
2022-08-08T01:11:23.848Z,1.23
2022-08-08T01:15:07.064Z,1.27
2022-08-08T01:18:25.341Z,1.20
2022-08-08T01:22:13.504Z,1.10
2022-08-08T01:24:59.373Z,1.13
2022-08-08T01:28:04.495Z,1.10
2022-08-08T01:32:14.971Z,1.27
2022-08-08T01:35:11.714Z,1.07
2022-08-08T01:38:11.210Z,1.47
2022-08-08T01:40:59.896Z,0.97
2022-08-08T01:43:47.918Z,1.03
2022-08-08T01:46:52.290Z,1.10
2022-08-08T01:49:45.101Z,1.10
2022-08-08T01:54:03.795Z,1.00
2022-08-08T01:56:28.908Z,1.37
2022-08-08T01:58:46.954Z,1.40
2022-08-08T02:01:55.102Z,1.20
2022-08-08T02:04:35.892Z,1.40
2022-08-08T02:07:18.361Z,1.20
2022-08-08T02:10:29.349Z,1.20
2022-08-08T02:13:07.666Z,1.20
2022-08-08T02:16:20.880Z,1.10
2022-08-08T02:19:01.200Z,1.00
2022-08-08T02:22:06.767Z,1.30
2022-08-08T02:24:51.340Z,1.07
2022-08-08T02:27:42.434Z,1.20
2022-08-08T02:30:24.750Z,1.20
2022-08-08T02:34:00.143Z,1.27
2022-08-08T02:36:41.330Z,1.33
2022-08-08T02:40:01.460Z,1.40
2022-08-08T02:44:38.035Z,1.27
2022-08-08T02:46:34.992Z,1.37
2022-08-08T02:49:55.392Z,1.17
2022-08-08T02:52:56.078Z,1.07
2022-08-08T02:56:41.089Z,1.30
2022-08-08T03:00:26.724Z,1.07
2022-08-08T03:05:04.715Z,1.33
2022-08-08T03:07:58.361Z,1.20
2022-08-08T03:12:01.355Z,1.20
2022-08-08T03:15:56.572Z,1.20
2022-08-08T03:18:06.980Z,1.50
2022-08-08T03:20:46.946Z,1.20
2022-08-08T03:23:24.277Z,1.17
2022-08-08T03:26:09.371Z,1.40
2022-08-08T03:28:45.093Z,1.47
2022-08-08T03:32:05.993Z,1.10
2022-08-08T03:34:37.782Z,1.20
2022-08-08T03:37:59.313Z,1.23
2022-08-08T03:40:05.490Z,1.43
2022-08-08T03:42:37.545Z,1.40
2022-08-08T03:46:05.790Z,1.50
2022-08-08T03:48:09.660Z,1.23
2022-08-08T03:50:51.758Z,1.40
2022-08-08T03:53:23.963Z,1.33
2022-08-08T03:56:31.152Z,1.43
2022-08-08T03:59:00.725Z,1.40
2022-08-08T04:02:02.452Z,1.40
2022-08-08T04:04:30.576Z,1.20
2022-08-08T04:07:01.233Z,2.37
2022-08-08T04:10:02.859Z,1.60
2022-08-08T04:12:27.319Z,1.43
2022-08-08T04:14:57.421Z,1.50
2022-08-08T04:17:58.494Z,1.50
2022-08-08T04:20:17.860Z,1.60
2022-08-08T04:22:51.607Z,1.60
2022-08-08T04:25:20.872Z,1.40
2022-08-08T04:28:34.129Z,1.60
2022-08-08T04:30:48.415Z,1.53
2022-08-08T04:33:17.687Z,1.43
2022-08-08T04:35:51.138Z,1.47
2022-08-08T04:38:22.344Z,1.70
2022-08-08T04:40:54.678Z,1.23
2022-08-08T04:43:32.385Z,1.40
2022-08-08T04:46:19.226Z,1.47
2022-08-08T04:48:50.005Z,1.57
2022-08-08T04:51:23.527Z,1.20
2022-08-08T04:54:38.887Z,1.50
2022-08-08T04:56:55.544Z,1.40
2022-08-08T04:59:29.884Z,1.90
2022-08-08T05:02:00.976Z,1.17
2022-08-08T05:04:30.082Z,1.20
2022-08-08T05:06:59.584Z,1.50
2022-08-08T05:09:28.070Z,1.60
2022-08-08T05:11:57.836Z,1.23
2022-08-08T05:14:31.102Z,1.30
2022-08-08T05:17:09.042Z,1.90
2022-08-08T05:20:12.852Z,1.53
2022-08-08T05:22:35.731Z,1.50
2022-08-08T05:25:07.133Z,2.43
2022-08-08T05:27:41.814Z,1.30
2022-08-08T05:30:15.273Z,1.47
2022-08-08T05:32:49.476Z,1.70
2022-08-08T05:35:24.780Z,1.47
2022-08-08T05:38:05.400Z,1.57
2022-08-08T05:40:59.838Z,1.50
2022-08-08T05:44:02.227Z,1.70
2022-08-08T05:46:26.884Z,1.80
2022-08-08T05:48:56.501Z,1.67
2022-08-08T05:51:48.216Z,2.10
2022-08-08T05:54:28.708Z,2.10
2022-08-08T05:57:16.251Z,1.70
2022-08-08T06:00:23.117Z,1.60
2022-08-08T06:03:17.494Z,1.63
2022-08-08T06:06:01.445Z,1.63
2022-08-08T06:08:54.700Z,1.30
2022-08-08T06:11:28.272Z,1.20
2022-08-08T06:13:58.623Z,1.60
2022-08-08T06:16:30.558Z,1.40
2022-08-08T06:19:17.797Z,1.60
2022-08-08T06:21:57.038Z,1.30
2022-08-08T06:24:47.100Z,1.63
2022-08-08T06:27:34.375Z,1.50
2022-08-08T06:30:19.972Z,1.30
2022-08-08T06:33:01.305Z,1.23
2022-08-08T06:36:07.394Z,1.50
2022-08-08T06:38:29.201Z,1.50
2022-08-08T06:41:06.428Z,1.57
2022-08-08T06:43:38.111Z,1.40
2022-08-08T06:46:16.453Z,1.50
2022-08-08T06:48:47.724Z,1.40
2022-08-08T06:51:22.406Z,1.53
2022-08-08T06:53:56.494Z,1.10
2022-08-08T06:56:36.921Z,1.53
2022-08-08T06:59:09.730Z,1.60
2022-08-08T07:02:27.156Z,1.47
2022-08-08T07:04:51.928Z,1.63
2022-08-08T07:07:51.586Z,1.30
2022-08-08T07:10:25.294Z,1.40
2022-08-08T07:13:04.547Z,1.33
2022-08-08T07:16:12.006Z,1.40
2022-08-08T07:19:06.341Z,1.40
2022-08-08T07:21:48.453Z,1.20
2022-08-08T07:24:27.980Z,1.83
2022-08-08T07:27:09.302Z,1.90
2022-08-08T07:30:01.914Z,1.50
2022-08-08T07:32:34.182Z,1.63
2022-08-08T07:35:08.503Z,1.50
2022-08-08T07:37:49.704Z,1.40
2022-08-08T07:40:40.090Z,1.50
2022-08-08T07:43:13.692Z,1.30
2022-08-08T07:46:05.818Z,1.83
2022-08-08T07:48:38.553Z,1.43
2022-08-08T07:51:24.426Z,1.50
2022-08-08T07:54:15.902Z,1.60
2022-08-08T07:57:16.842Z,1.37
2022-08-08T08:00:02.084Z,2.07
2022-08-08T08:02:41.747Z,1.50
2022-08-08T08:05:21.173Z,1.37
2022-08-08T08:07:55.757Z,1.40
2022-08-08T08:10:33.379Z,1.70
2022-08-08T08:13:25.631Z,1.60
2022-08-08T08:16:17.070Z,1.50
2022-08-08T08:18:56.136Z,1.80
2022-08-08T08:21:43.995Z,1.70
2022-08-08T08:24:31.950Z,1.70
2022-08-08T08:27:03.623Z,1.50
2022-08-08T08:29:35.675Z,1.57
2022-08-08T08:32:06.653Z,1.60
2022-08-08T08:34:43.421Z,1.53
2022-08-08T08:37:20.404Z,1.63
2022-08-08T08:40:01.300Z,1.23
2022-08-08T08:42:35.608Z,1.27
2022-08-08T08:45:21.477Z,1.47
2022-08-08T08:47:58.619Z,1.50
2022-08-08T08:50:36.061Z,1.50
2022-08-08T08:53:54.743Z,1.40
2022-08-08T08:56:12.191Z,1.63
2022-08-08T08:58:46.852Z,1.10
2022-08-08T09:01:31.978Z,1.00
2022-08-08T09:04:10.074Z,1.07
2022-08-08T09:07:00.229Z,1.00
2022-08-08T09:09:39.147Z,1.07
2022-08-08T09:12:27.436Z,1.00
2022-08-08T09:14:59.474Z,1.30
2022-08-08T09:17:42.055Z,1.10
2022-08-08T09:21:58.257Z,1.13
2022-08-08T09:23:25.391Z,1.17
2022-08-08T09:26:04.285Z,1.10
2022-08-08T09:28:41.533Z,1.07
2022-08-08T09:31:23.997Z,0.90
2022-08-08T09:34:30.345Z,0.93
2022-08-08T09:37:10.142Z,0.90
2022-08-08T09:40:00.722Z,1.10
2022-08-08T09:42:43.905Z,0.80
2022-08-08T09:45:55.218Z,0.90
2022-08-08T09:48:21.342Z,1.00
2022-08-08T09:50:55.048Z,0.80
2022-08-08T09:53:59.355Z,0.90
2022-08-08T09:56:25.499Z,0.90
2022-08-08T09:59:14.997Z,0.70
2022-08-08T10:02:00.148Z,1.10
2022-08-08T10:04:41.569Z,1.43
2022-08-08T10:07:16.414Z,1.07
2022-08-08T10:10:00.248Z,0.90
2022-08-08T10:12:38.770Z,1.10
2022-08-08T10:15:24.411Z,1.00
2022-08-08T10:18:08.530Z,1.30
2022-08-08T10:20:58.288Z,1.10
2022-08-08T10:23:47.080Z,0.97
2022-08-08T10:26:30.885Z,1.17
2022-08-08T10:29:05.990Z,1.50
2022-08-08T10:31:54.746Z,0.90
2022-08-08T10:34:27.473Z,1.00
2022-08-08T10:36:59.751Z,1.30
2022-08-08T10:39:31.824Z,0.90
2022-08-08T10:42:21.926Z,0.90
2022-08-08T10:45:09.059Z,1.10
2022-08-08T10:47:43.993Z,1.10
2022-08-08T10:50:17.016Z,1.10
2022-08-08T10:52:46.358Z,1.10
2022-08-08T10:55:41.218Z,1.13
2022-08-08T10:58:09.956Z,1.10
2022-08-08T11:00:53.167Z,0.90
2022-08-08T11:04:00.568Z,1.00
2022-08-08T11:06:34.338Z,1.43
2022-08-08T11:09:09.591Z,1.10
2022-08-08T11:12:06.555Z,1.20
2022-08-08T11:14:35.695Z,1.20
2022-08-08T11:17:05.252Z,1.17
2022-08-08T11:19:37.054Z,1.20
2022-08-08T11:22:08.417Z,1.00
2022-08-08T11:24:39.792Z,1.10
2022-08-08T11:27:19.540Z,1.23
2022-08-08T11:30:04.516Z,1.00
2022-08-08T11:32:47.493Z,1.10
2022-08-08T11:35:27.115Z,0.90
2022-08-08T11:38:38.980Z,0.80
2022-08-08T11:40:56.480Z,1.03
2022-08-08T11:43:39.494Z,1.10
2022-08-08T11:46:13.951Z,1.13
2022-08-08T11:48:48.674Z,0.97
2022-08-08T11:51:30.545Z,1.27
2022-08-08T11:54:26.823Z,1.00
2022-08-08T11:57:14.441Z,1.20
2022-08-08T12:00:01.306Z,1.27
2022-08-08T12:02:51.497Z,1.10
2022-08-08T12:05:33.733Z,1.27
2022-08-08T12:08:02.279Z,1.20
2022-08-08T12:10:34.441Z,1.10
2022-08-08T12:13:09.854Z,1.00
2022-08-08T12:15:48.233Z,1.23
2022-08-08T12:18:24.316Z,1.13
2022-08-08T12:20:56.638Z,1.00
2022-08-08T12:23:44.059Z,2.77
2022-08-08T12:26:28.089Z,1.80
2022-08-08T12:29:25.852Z,1.00
2022-08-08T12:32:19.523Z,0.90
2022-08-08T12:35:13.623Z,1.13
2022-08-08T12:38:01.309Z,0.93
2022-08-08T12:40:54.142Z,1.10
2022-08-08T12:43:31.868Z,1.30
2022-08-08T12:46:03.454Z,1.30
2022-08-08T12:48:37.024Z,1.00
2022-08-08T12:51:11.292Z,1.00
2022-08-08T12:53:58.524Z,1.10
2022-08-08T12:56:34.762Z,1.20
2022-08-08T12:59:14.646Z,1.10
2022-08-08T13:01:53.572Z,1.10
2022-08-08T13:04:25.734Z,1.20
2022-08-08T13:07:02.770Z,1.10
2022-08-08T13:10:00.715Z,1.30
2022-08-08T13:12:32.489Z,1.57
2022-08-08T13:15:04.381Z,0.97
2022-08-08T13:18:08.940Z,1.20
2022-08-08T13:20:27.677Z,1.00
2022-08-08T13:23:30.753Z,1.17
2022-08-08T13:25:50.945Z,1.53
2022-08-08T13:28:32.897Z,1.10
2022-08-08T13:31:04.054Z,0.90
2022-08-08T13:33:42.607Z,1.10
2022-08-08T13:36:13.729Z,1.30
2022-08-08T13:38:43.305Z,0.97
2022-08-08T13:41:16.655Z,1.20
2022-08-08T13:43:50.700Z,1.83
2022-08-08T13:46:26.413Z,1.23
2022-08-08T13:49:12.078Z,1.13
2022-08-08T13:52:03.205Z,0.90
2022-08-08T13:54:40.752Z,1.00
2022-08-08T13:57:15.613Z,1.10
2022-08-08T13:59:48.518Z,1.13
2022-08-08T14:02:21.308Z,1.00
2022-08-08T14:04:57.483Z,0.90
2022-08-08T14:07:38.022Z,1.20
2022-08-08T14:10:16.961Z,1.13
2022-08-08T14:12:47.626Z,1.17
2022-08-08T14:15:39.706Z,1.93
2022-08-08T14:18:36.301Z,1.00
2022-08-08T14:21:20.786Z,0.97
2022-08-08T14:24:04.654Z,1.00
2022-08-08T14:26:42.977Z,0.83
2022-08-08T14:29:28.052Z,1.20
2022-08-08T14:32:10.600Z,1.07
2022-08-08T14:34:43.248Z,1.20
2022-08-08T14:37:12.842Z,1.10
2022-08-08T14:39:53.541Z,1.33
2022-08-08T14:42:36.440Z,1.07
2022-08-08T14:45:18.302Z,0.90
2022-08-08T14:48:02.701Z,0.90
2022-08-08T14:50:38.087Z,1.20
2022-08-08T14:53:14.239Z,1.07
2022-08-08T14:55:45.075Z,1.10
2022-08-08T14:58:16.188Z,0.90
2022-08-08T15:00:49.776Z,1.00
2022-08-08T15:03:19.045Z,1.30
2022-08-08T15:05:53.320Z,1.10
2022-08-08T15:08:34.585Z,1.17
2022-08-08T15:11:09.360Z,1.07
2022-08-08T15:14:01.419Z,1.20
2022-08-08T15:16:34.482Z,1.40
2022-08-08T15:19:04.687Z,1.00
2022-08-08T15:21:33.189Z,1.23
2022-08-08T15:24:01.673Z,0.93
2022-08-08T15:26:32.942Z,1.30
2022-08-08T15:29:01.444Z,1.10
2022-08-08T15:32:03.886Z,1.30
2022-08-08T15:34:31.405Z,1.10
2022-08-08T15:37:03.349Z,1.23
2022-08-08T15:39:38.472Z,1.30
2022-08-08T15:42:17.930Z,1.10
2022-08-08T15:44:59.549Z,1.27
2022-08-08T15:47:28.525Z,1.20
2022-08-08T15:50:00.714Z,1.30
2022-08-08T15:52:30.532Z,1.17
2022-08-08T15:55:01.640Z,1.30
2022-08-08T15:57:35.771Z,1.50
2022-08-08T16:00:27.132Z,1.80
2022-08-08T16:02:59.417Z,1.20
2022-08-08T16:05:35.090Z,1.30
2022-08-08T16:08:06.711Z,1.50
2022-08-08T16:13:11.831Z,1.43
2022-08-08T16:13:32.364Z,1.47
2022-08-08T16:16:17.976Z,1.50
2022-08-08T16:18:53.345Z,1.10
2022-08-08T16:21:30.868Z,1.20
2022-08-08T16:24:03.555Z,1.17
2022-08-08T16:26:35.836Z,1.70
2022-08-08T16:29:09.967Z,1.20
2022-08-08T16:31:48.785Z,1.20
2022-08-08T16:34:22.281Z,1.20
2022-08-08T16:36:53.328Z,1.30
2022-08-08T16:39:59.497Z,1.30
2022-08-08T16:42:18.190Z,1.10
2022-08-08T16:44:54.882Z,1.00
2022-08-08T16:47:40.069Z,1.70
2022-08-08T16:50:15.190Z,1.50
2022-08-08T16:55:05.800Z,1.50
2022-08-08T16:55:53.940Z,1.30
2022-08-08T16:58:31.625Z,1.70
2022-08-08T17:01:05.976Z,1.47
2022-08-08T17:04:00.910Z,1.50
2022-08-08T17:06:39.752Z,1.40
2022-08-08T17:09:14.738Z,1.33
2022-08-08T17:11:49.306Z,1.30
2022-08-08T17:14:27.113Z,1.43
2022-08-08T17:17:01.467Z,1.77
2022-08-08T17:19:31.881Z,1.50
2022-08-08T17:22:10.421Z,1.30
2022-08-08T17:24:40.143Z,1.90
2022-08-08T17:27:10.378Z,1.50
2022-08-08T17:29:43.306Z,1.50
2022-08-08T17:32:29.062Z,2.00
2022-08-08T17:35:53.440Z,1.40
2022-08-08T17:38:01.191Z,1.50
2022-08-08T17:40:32.561Z,1.63
2022-08-08T17:43:00.912Z,1.43
2022-08-08T17:45:29.413Z,1.70
2022-08-08T17:48:02.526Z,1.60
2022-08-08T17:50:32.122Z,1.53
2022-08-08T17:53:01.227Z,1.57
2022-08-08T17:56:03.421Z,1.67
2022-08-08T17:58:18.481Z,1.80
2022-08-08T18:00:57.054Z,1.60
2022-08-08T18:03:27.056Z,1.63
2022-08-08T18:05:55.416Z,1.50
2022-08-08T18:08:25.198Z,1.67
2022-08-08T18:11:14.892Z,1.60
2022-08-08T18:13:48.065Z,1.50
2022-08-08T18:16:23.262Z,1.70
2022-08-08T18:18:56.558Z,2.07
2022-08-08T18:21:59.103Z,1.30
2022-08-08T18:24:21.118Z,1.57
2022-08-08T18:26:53.824Z,1.73
2022-08-08T18:29:29.413Z,1.67
2022-08-08T18:31:59.662Z,1.20
2022-08-08T18:34:29.549Z,1.60
2022-08-08T18:37:04.576Z,1.80
2022-08-08T18:39:34.755Z,1.90
2022-08-08T18:42:11.611Z,1.57
2022-08-08T18:44:55.030Z,1.50
2022-08-08T18:47:26.153Z,1.60
2022-08-08T18:50:00.296Z,1.53
2022-08-08T18:52:33.797Z,1.47
2022-08-08T18:55:10.669Z,1.70
2022-08-08T18:57:44.884Z,1.93
2022-08-08T19:00:20.503Z,1.90
2022-08-08T19:02:56.869Z,1.93
2022-08-08T19:05:34.126Z,1.83
2022-08-08T19:08:24.640Z,1.60
2022-08-08T19:10:59.275Z,2.00
2022-08-08T19:13:52.894Z,2.07
2022-08-08T19:16:19.340Z,2.03
2022-08-08T19:19:00.405Z,1.77
2022-08-08T19:21:48.790Z,1.97
2022-08-08T19:24:38.913Z,1.90
2022-08-08T19:27:08.731Z,2.00
2022-08-08T19:29:42.284Z,3.50
2022-08-08T19:32:12.954Z,3.03
2022-08-08T19:34:49.244Z,1.97
2022-08-08T19:37:43.075Z,1.80
2022-08-08T19:40:14.629Z,1.97
2022-08-08T19:42:46.327Z,1.90
2022-08-08T19:45:59.462Z,2.00
2022-08-08T19:48:06.253Z,2.37
2022-08-08T19:50:54.844Z,2.50
2022-08-08T19:53:53.552Z,2.17
2022-08-08T19:56:16.370Z,2.10
2022-08-08T19:58:51.651Z,2.27
2022-08-08T20:01:25.854Z,2.47
2022-08-08T20:04:10.103Z,2.17
2022-08-08T20:06:39.593Z,2.33
2022-08-08T20:09:10.097Z,2.30
2022-08-08T20:11:44.331Z,2.27
2022-08-08T20:14:34.871Z,2.90
2022-08-08T20:17:01.142Z,3.50
2022-08-08T20:19:33.613Z,2.90
2022-08-08T20:22:05.221Z,2.73
2022-08-08T20:24:43.342Z,2.20
2022-08-08T20:27:20.365Z,2.07
2022-08-08T20:29:56.118Z,2.70
2022-08-08T20:32:31.974Z,2.17
2022-08-08T20:35:02.474Z,2.60
2022-08-08T20:37:46.707Z,2.50
2022-08-08T20:40:33.498Z,2.30
2022-08-08T20:43:16.233Z,2.53
2022-08-08T20:45:57.739Z,2.80
2022-08-08T20:48:32.081Z,2.30
2022-08-08T20:51:01.155Z,2.50
2022-08-08T20:53:58.900Z,2.07
2022-08-08T20:56:20.824Z,2.30
2022-08-08T20:59:06.447Z,3.07
2022-08-08T21:02:05.409Z,2.70
2022-08-08T21:04:27.907Z,2.50
2022-08-08T21:06:57.092Z,2.70
2022-08-08T21:09:31.376Z,2.33
2022-08-08T21:12:03.316Z,2.40
2022-08-08T21:14:34.747Z,2.77
2022-08-08T21:17:05.889Z,2.47
2022-08-08T21:19:45.517Z,2.40
2022-08-08T21:22:16.063Z,2.40
2022-08-08T21:24:53.726Z,2.83
2022-08-08T21:28:05.325Z,2.83
2022-08-08T21:30:19.094Z,2.43
2022-08-08T21:32:53.191Z,2.70
2022-08-08T21:36:17.943Z,2.60
2022-08-08T21:38:16.327Z,2.90
2022-08-08T21:40:56.414Z,2.77
2022-08-08T21:43:31.307Z,2.57
2022-08-08T21:48:08.618Z,2.63
2022-08-08T21:48:53.494Z,2.63
2022-08-08T21:54:16.797Z,2.50
2022-08-08T21:54:33.579Z,2.60
2022-08-08T21:57:03.564Z,2.63
2022-08-08T22:00:03.110Z,2.93
2022-08-08T22:02:23.458Z,2.80
2022-08-08T22:04:58.642Z,2.67
2022-08-08T22:07:39.788Z,2.90
2022-08-08T22:10:18.287Z,3.07
2022-08-08T22:13:18.353Z,2.73
2022-08-08T22:15:59.546Z,2.73
2022-08-08T22:18:31.947Z,2.50
2022-08-08T22:21:10.798Z,2.50
2022-08-08T22:23:50.587Z,3.30
2022-08-08T22:26:29.928Z,3.23
2022-08-08T22:29:14.566Z,3.03
2022-08-08T22:32:01.692Z,3.27
2022-08-08T22:34:39.408Z,2.93
2022-08-08T22:37:15.010Z,3.27
2022-08-08T22:40:01.342Z,2.80
2022-08-08T22:42:31.670Z,3.10
2022-08-08T22:45:01.014Z,2.70
2022-08-08T22:47:37.963Z,2.77
2022-08-08T22:50:26.765Z,2.60
2022-08-08T22:54:29.123Z,2.90
2022-08-08T22:55:59.389Z,2.67
2022-08-08T22:58:32.883Z,2.83
2022-08-08T23:01:26.685Z,3.13
2022-08-08T23:03:54.963Z,2.77
2022-08-08T23:06:24.542Z,2.90
2022-08-08T23:08:55.668Z,3.00
2022-08-08T23:12:18.170Z,3.10
2022-08-08T23:14:17.497Z,2.77
2022-08-08T23:16:54.840Z,2.80
2022-08-08T23:19:30.929Z,2.80
2022-08-08T23:22:04.599Z,2.87
2022-08-08T23:24:36.736Z,2.63
2022-08-08T23:27:11.997Z,2.90
2022-08-08T23:30:00.164Z,2.80
2022-08-08T23:32:28.982Z,3.17
2022-08-08T23:34:59.606Z,3.33
2022-08-08T23:38:03.090Z,2.60
2022-08-08T23:40:21.923Z,3.00
2022-08-08T23:42:51.486Z,2.83
2022-08-08T23:48:59.630Z,2.80
2022-08-08T23:49:08.355Z,2.80
2022-08-08T23:50:59.146Z,2.80
2022-08-08T23:54:04.798Z,2.90
2022-08-08T23:56:23.960Z,2.80
2022-08-08T23:59:02.257Z,2.87
